Time,TemperatureF,DewpointF,PressureIn,WindDirection,WindDirectionDegrees,WindSpeedMPH,WindSpeedGustMPH,Humidity,HourlyPrecipIn,Conditions,Clouds,dailyrainin,SoftwareType,DateUTC
2013-09-22 00:00:00,68.3,66.0,29.68,SSE,167,1.0,-999.0,91,-99.99,,,0.00,weatherlink.com 1.10,2013-09-22 04:00:00,
2013-09-22 00:15:00,68.3,66.0,29.68,South,187,2.0,-999.0,91,-99.99,,,0.00,weatherlink.com 1.10,2013-09-22 04:15:00,
2013-09-22 00:30:00,68.4,66.0,29.67,SSW,211,1.0,-999.0,91,-99.99,,,0.00,weatherlink.com 1.10,2013-09-22 04:30:00,
2013-09-22 00:45:00,68.4,66.0,29.67,SSW,195,0.0,-999.0,91,-99.99,,,0.00,weatherlink.com 1.10,2013-09-22 04:45:00,
2013-09-22 01:00:00,68.3,66.0,29.66,SSW,192,0.0,-999.0,91,-99.99,,,0.00,weatherlink.com 1.10,2013-09-22 05:00:00,
2013-09-22 01:15:00,68.3,66.0,29.65,South,175,0.0,-999.0,91,-99.99,,,0.00,weatherlink.com 1.10,2013-09-22 05:15:00,
2013-09-22 01:30:00,68.3,66.0,29.64,SSE,168,0.0,-999.0,91,-99.99,,,0.00,weatherlink.com 1.10,2013-09-22 05:30:00,
2013-09-22 01:45:00,68.3,66.0,29.63,SSW,196,1.0,-999.0,92,-99.99,,,0.00,weatherlink.com 1.10,2013-09-22 05:45:00,
2013-09-22 02:00:00,68.6,66.0,29.62,SE,126,0.0,-999.0,91,-99.99,,,0.00,weatherlink.com 1.10,2013-09-22 06:00:00,
2013-09-22 02:15:00,69.0,66.0,29.62,South,171,2.0,-999.0,90,-99.99,,,0.00,weatherlink.com 1.10,2013-09-22 06:15:00,
2013-09-22 02:30:00,69.2,66.0,29.61,SSW,206,1.0,-999.0,90,-99.99,,,0.00,weatherlink.com 1.10,2013-09-22 06:30:00,
2013-09-22 02:45:00,69.4,66.0,29.60,South,177,4.0,-999.0,89,-99.99,,,0.00,weatherlink.com 1.10,2013-09-22 06:45:00,
2013-09-22 03:01:00,69.7,66.0,29.60,SSE,148,2.0,-999.0,88,-99.99,,,0.00,weatherlink.com 1.10,2013-09-22 07:01:00,
2013-09-22 03:16:00,69.8,66.0,29.59,SSW,195,1.0,-999.0,88,-99.99,,,0.00,weatherlink.com 1.10,2013-09-22 07:16:00,
2013-09-22 03:31:00,69.8,66.0,29.58,WSW,240,3.0,-999.0,88,-99.99,,,0.00,weatherlink.com 1.10,2013-09-22 07:31:00,
2013-09-22 03:46:00,69.6,66.0,29.58,South,173,4.0,-999.0,89,-99.99,,,0.00,weatherlink.com 1.10,2013-09-22 07:46:00,
2013-09-22 04:01:00,69.3,67.0,29.57,SSW,196,2.0,-999.0,91,-99.99,,,0.00,weatherlink.com 1.10,2013-09-22 08:01:00,
2013-09-22 04:16:00,69.0,66.0,29.57,SSW,201,2.0,-999.0,91,-99.99,,,0.00,weatherlink.com 1.10,2013-09-22 08:16:00,
2013-09-22 04:31:00,69.0,67.0,29.57,SSE,159,0.0,-999.0,92,-99.99,,,0.00,weatherlink.com 1.10,2013-09-22 08:31:00,
2013-09-22 04:46:00,68.7,67.0,29.56,SSW,205,2.0,-999.0,94,-99.99,,,0.02,weatherlink.com 1.10,2013-09-22 08:46:00,
2013-09-22 05:01:00,68.1,67.0,29.57,SW,217,4.0,-999.0,95,-99.99,,,0.42,weatherlink.com 1.10,2013-09-22 09:01:00,
2013-09-22 05:16:00,66.3,65.0,29.58,NW,308,1.0,-999.0,94,-99.99,,,0.68,weatherlink.com 1.10,2013-09-22 09:16:00,
2013-09-22 05:31:00,63.9,62.0,29.59,NE,34,0.0,-999.0,94,-99.99,,,0.72,weatherlink.com 1.10,2013-09-22 09:31:00,
2013-09-22 05:46:00,62.8,62.0,29.61,SW,217,0.0,-999.0,96,-99.99,,,0.78,weatherlink.com 1.10,2013-09-22 09:46:00,
2013-09-22 06:01:00,62.1,61.0,29.60,SW,231,0.0,-999.0,96,-99.99,,,0.85,weatherlink.com 1.10,2013-09-22 10:01:00,
2013-09-22 06:16:00,61.6,61.0,29.62,SW,231,0.0,-999.0,97,-99.99,,,0.85,weatherlink.com 1.10,2013-09-22 10:16:00,
2013-09-22 06:31:00,61.5,61.0,29.62,SW,231,0.0,-999.0,97,-99.99,,,0.86,weatherlink.com 1.10,2013-09-22 10:31:00,
2013-09-22 06:46:00,61.4,61.0,29.62,SW,231,0.0,-999.0,98,-99.99,,,0.87,weatherlink.com 1.10,2013-09-22 10:46:00,
2013-09-22 07:01:00,61.3,61.0,29.62,SW,231,0.0,-999.0,98,-99.99,,,0.89,weatherlink.com 1.10,2013-09-22 11:01:00,
2013-09-22 07:16:00,61.1,61.0,29.63,SW,230,0.0,-999.0,98,-99.99,,,0.90,weatherlink.com 1.10,2013-09-22 11:16:00,
2013-09-22 07:31:00,61.0,61.0,29.62,SSW,212,0.0,-999.0,98,-99.99,,,0.91,weatherlink.com 1.10,2013-09-22 11:31:00,
2013-09-22 07:46:00,60.9,60.0,29.62,SSW,212,0.0,-999.0,98,-99.99,,,0.92,weatherlink.com 1.10,2013-09-22 11:46:00,
2013-09-22 08:01:00,60.9,60.0,29.63,SSW,212,0.0,-999.0,98,-99.99,,,0.92,weatherlink.com 1.10,2013-09-22 12:01:00,
2013-09-22 08:16:00,61.2,61.0,29.62,SSW,212,0.0,-999.0,98,-99.99,,,0.92,weatherlink.com 1.10,2013-09-22 12:16:00,
2013-09-22 08:31:00,61.4,61.0,29.63,SSW,212,0.0,-999.0,98,-99.99,,,0.92,weatherlink.com 1.10,2013-09-22 12:31:00,
2013-09-22 08:46:00,61.5,61.0,29.63,SSW,212,0.0,-999.0,98,-99.99,,,0.92,weatherlink.com 1.10,2013-09-22 12:46:00,
2013-09-22 09:01:00,61.5,61.0,29.64,SSW,212,0.0,-999.0,98,-99.99,,,0.92,weatherlink.com 1.10,2013-09-22 13:01:00,
2013-09-22 09:16:00,61.6,61.0,29.64,SSW,212,0.0,-999.0,98,-99.99,,,0.92,weatherlink.com 1.10,2013-09-22 13:16:00,
2013-09-22 09:31:00,61.6,61.0,29.65,SSW,212,0.0,-999.0,98,-99.99,,,0.92,weatherlink.com 1.10,2013-09-22 13:31:00,
2013-09-22 09:46:00,60.7,60.0,29.65,NW,322,0.0,-999.0,97,-99.99,,,0.92,weatherlink.com 1.10,2013-09-22 13:46:00,
2013-09-22 10:01:00,60.1,59.0,29.65,NE,40,0.0,-999.0,96,-99.99,,,0.92,weatherlink.com 1.10,2013-09-22 14:01:00,
2013-09-22 10:16:00,60.2,59.0,29.65,South,191,0.0,-999.0,96,-99.99,,,0.92,weatherlink.com 1.10,2013-09-22 14:16:00,
2013-09-22 10:31:00,60.7,60.0,29.64,SSE,153,0.0,-999.0,96,-99.99,,,0.92,weatherlink.com 1.10,2013-09-22 14:31:00,
2013-09-22 10:46:00,61.4,60.0,29.64,West,275,0.0,-999.0,96,-99.99,,,0.92,weatherlink.com 1.10,2013-09-22 14:46:00,
2013-09-22 11:01:00,62.0,60.0,29.64,WNW,283,0.0,-999.0,94,-99.99,,,0.92,weatherlink.com 1.10,2013-09-22 15:01:00,
2013-09-22 11:16:00,64.2,60.0,29.64,ESE,123,0.0,-999.0,87,-99.99,,,0.92,weatherlink.com 1.10,2013-09-22 15:16:00,
2013-09-22 11:31:00,65.6,60.0,29.64,North,11,0.0,-999.0,81,-99.99,,,0.92,weatherlink.com 1.10,2013-09-22 15:31:00,
2013-09-22 11:46:00,66.9,59.0,29.64,SW,214,1.0,-999.0,75,-99.99,,,0.92,weatherlink.com 1.10,2013-09-22 15:46:00,
2013-09-22 12:01:00,68.1,58.0,29.64,South,180,0.0,-999.0,69,-99.99,,,0.92,weatherlink.com 1.10,2013-09-22 16:01:00,
2013-09-22 12:16:00,69.6,57.0,29.64,South,188,2.0,-999.0,65,-99.99,,,0.92,weatherlink.com 1.10,2013-09-22 16:16:00,
2013-09-22 12:31:00,69.2,55.0,29.64,North,5,0.0,-999.0,62,-99.99,,,0.92,weatherlink.com 1.10,2013-09-22 16:31:00,
2013-09-22 12:46:00,70.5,56.0,29.64,West,277,0.0,-999.0,61,-99.99,,,0.92,weatherlink.com 1.10,2013-09-22 16:46:00,
2013-09-22 13:01:00,70.1,54.0,29.64,WSW,254,1.0,-999.0,57,-99.99,,,0.92,weatherlink.com 1.10,2013-09-22 17:01:00,
2013-09-22 13:16:00,69.4,57.0,29.64,NE,38,0.0,-999.0,64,-99.99,,,0.92,weatherlink.com 1.10,2013-09-22 17:16:00,
2013-09-22 13:31:00,70.8,55.0,29.63,SW,232,0.0,-999.0,58,-99.99,,,0.92,weatherlink.com 1.10,2013-09-22 17:31:00,
2013-09-22 13:46:00,71.3,54.0,29.64,SSW,196,0.0,-999.0,55,-99.99,,,0.92,weatherlink.com 1.10,2013-09-22 17:46:00,
2013-09-22 14:01:00,70.3,54.0,29.64,SSW,194,1.0,-999.0,56,-99.99,,,0.92,weatherlink.com 1.10,2013-09-22 18:01:00,
2013-09-22 14:16:00,70.6,53.0,29.64,South,174,0.0,-999.0,54,-99.99,,,0.92,weatherlink.com 1.10,2013-09-22 18:16:00,
2013-09-22 14:31:00,68.3,52.0,29.64,SW,221,0.0,-999.0,56,-99.99,,,0.92,weatherlink.com 1.10,2013-09-22 18:31:00,
2013-09-22 14:47:00,68.4,52.0,29.64,SW,234,0.0,-999.0,56,-99.99,,,0.92,weatherlink.com 1.10,2013-09-22 18:47:00,
2013-09-22 15:02:00,69.3,52.0,29.64,WSW,252,0.0,-999.0,54,-99.99,,,0.92,weatherlink.com 1.10,2013-09-22 19:02:00,
2013-09-22 15:17:00,69.7,51.0,29.65,West,264,0.0,-999.0,52,-99.99,,,0.92,weatherlink.com 1.10,2013-09-22 19:17:00,
2013-09-22 15:32:00,68.1,50.0,29.64,North,360,1.0,-999.0,53,-99.99,,,0.92,weatherlink.com 1.10,2013-09-22 19:32:00,
2013-09-22 15:47:00,68.3,50.0,29.65,NNW,331,0.0,-999.0,53,-99.99,,,0.92,weatherlink.com 1.10,2013-09-22 19:47:00,
2013-09-22 16:02:00,68.8,50.0,29.65,SW,215,1.0,-999.0,52,-99.99,,,0.92,weatherlink.com 1.10,2013-09-22 20:02:00,
2013-09-22 16:17:00,69.1,52.0,29.65,WSW,252,0.0,-999.0,55,-99.99,,,0.92,weatherlink.com 1.10,2013-09-22 20:17:00,
2013-09-22 16:32:00,67.9,52.0,29.65,WSW,250,0.0,-999.0,58,-99.99,,,0.92,weatherlink.com 1.10,2013-09-22 20:32:00,
2013-09-22 16:47:00,67.2,52.0,29.66,WSW,246,0.0,-999.0,59,-99.99,,,0.92,weatherlink.com 1.10,2013-09-22 20:47:00,
2013-09-22 17:02:00,67.6,53.0,29.66,NW,321,0.0,-999.0,59,-99.99,,,0.92,weatherlink.com 1.10,2013-09-22 21:02:00,
2013-09-22 17:17:00,66.0,53.0,29.66,WSW,245,0.0,-999.0,64,-99.99,,,0.92,weatherlink.com 1.10,2013-09-22 21:17:00,
2013-09-22 17:32:00,64.7,53.0,29.67,SSE,159,1.0,-999.0,65,-99.99,,,0.92,weatherlink.com 1.10,2013-09-22 21:32:00,
2013-09-22 17:47:00,63.6,51.0,29.68,NW,321,0.0,-999.0,64,-99.99,,,0.92,weatherlink.com 1.10,2013-09-22 21:47:00,
2013-09-22 18:02:00,62.5,51.0,29.68,SSW,207,0.0,-999.0,66,-99.99,,,0.92,weatherlink.com 1.10,2013-09-22 22:02:00,
2013-09-22 18:17:00,61.9,51.0,29.69,ESE,116,0.0,-999.0,67,-99.99,,,0.92,weatherlink.com 1.10,2013-09-22 22:17:00,
2013-09-22 18:32:00,61.4,50.0,29.69,SW,222,0.0,-999.0,67,-99.99,,,0.92,weatherlink.com 1.10,2013-09-22 22:32:00,
2013-09-22 18:47:00,60.6,50.0,29.70,West,269,0.0,-999.0,68,-99.99,,,0.92,weatherlink.com 1.10,2013-09-22 22:47:00,
2013-09-22 19:02:00,59.9,50.0,29.70,SSE,157,0.0,-999.0,70,-99.99,,,0.92,weatherlink.com 1.10,2013-09-22 23:02:00,
2013-09-22 19:17:00,59.5,50.0,29.71,SSW,211,0.0,-999.0,71,-99.99,,,0.92,weatherlink.com 1.10,2013-09-22 23:17:00,
2013-09-22 19:32:00,58.9,50.0,29.72,SW,219,0.0,-999.0,72,-99.99,,,0.92,weatherlink.com 1.10,2013-09-22 23:32:00,
2013-09-22 19:47:00,58.1,50.0,29.73,SW,223,0.0,-999.0,74,-99.99,,,0.92,weatherlink.com 1.10,2013-09-22 23:47:00,
2013-09-22 20:02:00,57.3,50.0,29.74,SW,228,0.0,-999.0,76,-99.99,,,0.92,weatherlink.com 1.10,2013-09-23 00:02:00,
2013-09-22 20:17:00,56.5,49.0,29.75,SW,229,0.0,-999.0,77,-99.99,,,0.92,weatherlink.com 1.10,2013-09-23 00:17:00,
2013-09-22 20:32:00,55.9,49.0,29.76,WNW,303,0.0,-999.0,78,-99.99,,,0.92,weatherlink.com 1.10,2013-09-23 00:32:00,
2013-09-22 20:47:00,55.1,49.0,29.76,WNW,303,0.0,-999.0,79,-99.99,,,0.92,weatherlink.com 1.10,2013-09-23 00:47:00,
2013-09-22 21:02:00,54.6,49.0,29.77,WNW,284,0.0,-999.0,80,-99.99,,,0.92,weatherlink.com 1.10,2013-09-23 01:02:00,
2013-09-22 21:17:00,54.3,49.0,29.77,WNW,284,0.0,-999.0,81,-99.99,,,0.92,weatherlink.com 1.10,2013-09-23 01:17:00,
2013-09-22 21:32:00,53.8,48.0,29.77,WNW,284,0.0,-999.0,81,-99.99,,,0.92,weatherlink.com 1.10,2013-09-23 01:32:00,
2013-09-22 21:47:00,53.2,48.0,29.78,WNW,284,0.0,-999.0,82,-99.99,,,0.92,weatherlink.com 1.10,2013-09-23 01:47:00,
2013-09-22 22:02:00,52.7,48.0,29.79,WNW,284,0.0,-999.0,83,-99.99,,,0.92,weatherlink.com 1.10,2013-09-23 02:02:00,
2013-09-22 22:17:00,52.1,47.0,29.79,WNW,284,0.0,-999.0,84,-99.99,,,0.92,weatherlink.com 1.10,2013-09-23 02:17:00,
2013-09-22 22:32:00,51.6,47.0,29.79,WNW,284,0.0,-999.0,85,-99.99,,,0.92,weatherlink.com 1.10,2013-09-23 02:32:00,
2013-09-22 22:47:00,51.3,47.0,29.80,WNW,284,0.0,-999.0,85,-99.99,,,0.92,weatherlink.com 1.10,2013-09-23 02:47:00,
2013-09-22 23:02:00,51.2,47.0,29.80,West,281,0.0,-999.0,86,-99.99,,,0.92,weatherlink.com 1.10,2013-09-23 03:02:00,
2013-09-22 23:17:00,51.2,47.0,29.80,WSW,238,0.0,-999.0,85,-99.99,,,0.92,weatherlink.com 1.10,2013-09-23 03:17:00,
2013-09-22 23:47:00,52.3,45.0,29.81,NE,40,1.0,-999.0,76,-99.99,,,0.92,weatherlink.com 1.10,2013-09-23 03:47:00,